sensor_id;sensor_type;location;lat;lon;timestamp;P1;durP1;ratioP1;P2;durP2;ratioP2
69172;SDS011;56280;49.662;8.408;2023-10-19T00:02:22;28.92;;;16.58;;
69172;SDS011;56280;49.662;8.408;2023-10-19T00:04:48;27.73;;;17.10;;
69172;SDS011;56280;49.662;8.408;2023-10-19T00:07:14;29.90;;;16.67;;
69172;SDS011;56280;49.662;8.408;2023-10-19T00:09:40;29.10;;;17.17;;
69172;SDS011;56280;49.662;8.408;2023-10-19T00:12:10;32.97;;;18.35;;
69172;SDS011;56280;49.662;8.408;2023-10-19T00:14:35;30.30;;;17.63;;
69172;SDS011;56280;49.662;8.408;2023-10-19T00:17:00;29.20;;;17.93;;
69172;SDS011;56280;49.662;8.408;2023-10-19T00:19:30;28.38;;;17.48;;
69172;SDS011;56280;49.662;8.408;2023-10-19T00:22:02;30.80;;;17.80;;
69172;SDS011;56280;49.662;8.408;2023-10-19T00:24:33;29.77;;;17.67;;
69172;SDS011;56280;49.662;8.408;2023-10-19T00:26:59;30.38;;;17.92;;
69172;SDS011;56280;49.662;8.408;2023-10-19T00:29:30;29.60;;;18.17;;
69172;SDS011;56280;49.662;8.408;2023-10-19T00:31:59;32.43;;;18.27;;
69172;SDS011;56280;49.662;8.408;2023-10-19T00:34:25;29.60;;;17.52;;
69172;SDS011;56280;49.662;8.408;2023-10-19T00:36:54;31.70;;;17.33;;
69172;SDS011;56280;49.662;8.408;2023-10-19T00:39:20;32.28;;;17.83;;
69172;SDS011;56280;49.662;8.408;2023-10-19T00:41:46;29.10;;;17.60;;
69172;SDS011;56280;49.662;8.408;2023-10-19T00:44:13;27.73;;;17.02;;
69172;SDS011;56280;49.662;8.408;2023-10-19T00:46:47;32.95;;;18.27;;
69172;SDS011;56280;49.662;8.408;2023-10-19T00:49:17;30.17;;;18.23;;
69172;SDS011;56280;49.662;8.408;2023-10-19T00:51:49;30.33;;;17.70;;
69172;SDS011;56280;49.662;8.408;2023-10-19T00:54:18;30.90;;;17.85;;
69172;SDS011;56280;49.662;8.408;2023-10-19T00:56:58;28.57;;;17.50;;
69172;SDS011;56280;49.662;8.408;2023-10-19T00:59:28;30.58;;;17.73;;
69172;SDS011;56280;49.662;8.408;2023-10-19T01:02:00;30.67;;;18.13;;
69172;SDS011;56280;49.662;8.408;2023-10-19T01:04:45;31.33;;;17.77;;
69172;SDS011;56280;49.662;8.408;2023-10-19T01:07:16;29.70;;;17.57;;
69172;SDS011;56280;49.662;8.408;2023-10-19T01:09:56;32.53;;;18.30;;
69172;SDS011;56280;49.662;8.408;2023-10-19T01:12:24;30.88;;;18.15;;
69172;SDS011;56280;49.662;8.408;2023-10-19T01:17:35;33.88;;;19.08;;
69172;SDS011;56280;49.662;8.408;2023-10-19T01:20:06;27.98;;;18.05;;
69172;SDS011;56280;49.662;8.408;2023-10-19T01:23:07;30.23;;;19.13;;
69172;SDS011;56280;49.662;8.408;2023-10-19T01:25:41;31.23;;;18.23;;
69172;SDS011;56280;49.662;8.408;2023-10-19T01:28:14;28.60;;;17.60;;
69172;SDS011;56280;49.662;8.408;2023-10-19T01:30:43;30.52;;;17.40;;
69172;SDS011;56280;49.662;8.408;2023-10-19T01:33:16;28.52;;;17.60;;
69172;SDS011;56280;49.662;8.408;2023-10-19T01:35:41;29.77;;;16.90;;
69172;SDS011;56280;49.662;8.408;2023-10-19T01:38:27;27.38;;;17.13;;
69172;SDS011;56280;49.662;8.408;2023-10-19T01:40:56;27.53;;;17.03;;
69172;SDS011;56280;49.662;8.408;2023-10-19T01:43:24;27.48;;;17.10;;
69172;SDS011;56280;49.662;8.408;2023-10-19T01:45:53;27.95;;;17.10;;
69172;SDS011;56280;49.662;8.408;2023-10-19T01:48:20;32.08;;;17.33;;
69172;SDS011;56280;49.662;8.408;2023-10-19T01:50:48;26.65;;;17.02;;
69172;SDS011;56280;49.662;8.408;2023-10-19T01:53:15;28.80;;;17.55;;
69172;SDS011;56280;49.662;8.408;2023-10-19T01:55:43;28.50;;;17.00;;
69172;SDS011;56280;49.662;8.408;2023-10-19T01:58:09;26.48;;;16.67;;
69172;SDS011;56280;49.662;8.408;2023-10-19T02:00:35;29.00;;;16.90;;
69172;SDS011;56280;49.662;8.408;2023-10-19T02:03:06;28.70;;;17.80;;
69172;SDS011;56280;49.662;8.408;2023-10-19T02:05:32;26.92;;;16.77;;
69172;SDS011;56280;49.662;8.408;2023-10-19T02:08:04;26.20;;;17.30;;
69172;SDS011;56280;49.662;8.408;2023-10-19T02:10:32;27.27;;;16.75;;
69172;SDS011;56280;49.662;8.408;2023-10-19T02:12:58;29.17;;;17.15;;
69172;SDS011;56280;49.662;8.408;2023-10-19T02:15:23;28.07;;;17.03;;
69172;SDS011;56280;49.662;8.408;2023-10-19T02:17:49;30.57;;;17.30;;
69172;SDS011;56280;49.662;8.408;2023-10-19T02:20:14;27.47;;;17.00;;
69172;SDS011;56280;49.662;8.408;2023-10-19T02:22:42;30.42;;;17.58;;
69172;SDS011;56280;49.662;8.408;2023-10-19T02:25:08;28.57;;;17.57;;
69172;SDS011;56280;49.662;8.408;2023-10-19T02:27:35;28.08;;;16.95;;
69172;SDS011;56280;49.662;8.408;2023-10-19T02:30:00;27.47;;;17.20;;
69172;SDS011;56280;49.662;8.408;2023-10-19T02:32:27;29.13;;;17.17;;
69172;SDS011;56280;49.662;8.408;2023-10-19T02:34:52;27.43;;;16.80;;
69172;SDS011;56280;49.662;8.408;2023-10-19T02:37:17;30.20;;;18.07;;
69172;SDS011;56280;49.662;8.408;2023-10-19T02:39:42;28.03;;;17.03;;
69172;SDS011;56280;49.662;8.408;2023-10-19T02:42:08;27.67;;;17.58;;
69172;SDS011;56280;49.662;8.408;2023-10-19T02:44:34;29.10;;;18.23;;
69172;SDS011;56280;49.662;8.408;2023-10-19T02:46:59;31.88;;;17.90;;
69172;SDS011;56280;49.662;8.408;2023-10-19T02:49:25;28.20;;;16.77;;
69172;SDS011;56280;49.662;8.408;2023-10-19T02:51:52;28.63;;;17.05;;
69172;SDS011;56280;49.662;8.408;2023-10-19T02:54:20;31.08;;;17.15;;
69172;SDS011;56280;49.662;8.408;2023-10-19T02:56:50;29.57;;;17.60;;
69172;SDS011;56280;49.662;8.408;2023-10-19T02:59:18;27.43;;;17.00;;
69172;SDS011;56280;49.662;8.408;2023-10-19T03:01:48;30.58;;;17.60;;
69172;SDS011;56280;49.662;8.408;2023-10-19T03:04:14;26.50;;;16.40;;
69172;SDS011;56280;49.662;8.408;2023-10-19T03:06:40;26.73;;;15.73;;
69172;SDS011;56280;49.662;8.408;2023-10-19T03:09:06;26.45;;;17.08;;
69172;SDS011;56280;49.662;8.408;2023-10-19T03:11:42;27.20;;;16.60;;
69172;SDS011;56280;49.662;8.408;2023-10-19T03:14:09;29.50;;;16.70;;
69172;SDS011;56280;49.662;8.408;2023-10-19T03:16:36;27.60;;;16.23;;
69172;SDS011;56280;49.662;8.408;2023-10-19T03:19:03;27.83;;;16.40;;
69172;SDS011;56280;49.662;8.408;2023-10-19T03:21:29;27.20;;;16.13;;
69172;SDS011;56280;49.662;8.408;2023-10-19T03:23:58;27.57;;;15.90;;
69172;SDS011;56280;49.662;8.408;2023-10-19T03:26:29;27.35;;;17.15;;
69172;SDS011;56280;49.662;8.408;2023-10-19T03:29:02;26.77;;;16.83;;
69172;SDS011;56280;49.662;8.408;2023-10-19T03:31:32;27.90;;;16.57;;
69172;SDS011;56280;49.662;8.408;2023-10-19T03:34:02;27.17;;;16.73;;
69172;SDS011;56280;49.662;8.408;2023-10-19T03:36:30;28.35;;;17.00;;
69172;SDS011;56280;49.662;8.408;2023-10-19T03:38:57;28.88;;;16.20;;
69172;SDS011;56280;49.662;8.408;2023-10-19T03:41:29;25.67;;;16.73;;
69172;SDS011;56280;49.662;8.408;2023-10-19T03:44:00;27.90;;;17.17;;
69172;SDS011;56280;49.662;8.408;2023-10-19T03:46:26;25.27;;;16.65;;
69172;SDS011;56280;49.662;8.408;2023-10-19T03:48:58;25.98;;;15.90;;
69172;SDS011;56280;49.662;8.408;2023-10-19T03:51:28;25.90;;;16.85;;
69172;SDS011;56280;49.662;8.408;2023-10-19T03:54:04;29.38;;;17.13;;
69172;SDS011;56280;49.662;8.408;2023-10-19T03:56:38;28.92;;;16.92;;
69172;SDS011;56280;49.662;8.408;2023-10-19T03:59:03;28.43;;;16.40;;
69172;SDS011;56280;49.662;8.408;2023-10-19T04:01:29;29.77;;;16.67;;
69172;SDS011;56280;49.662;8.408;2023-10-19T04:03:56;26.90;;;16.55;;
69172;SDS011;56280;49.662;8.408;2023-10-19T04:06:22;28.77;;;16.60;;
69172;SDS011;56280;49.662;8.408;2023-10-19T04:08:48;27.60;;;16.00;;
69172;SDS011;56280;49.662;8.408;2023-10-19T04:11:16;26.58;;;16.55;;
69172;SDS011;56280;49.662;8.408;2023-10-19T04:13:48;29.60;;;16.80;;
69172;SDS011;56280;49.662;8.408;2023-10-19T04:16:18;25.70;;;15.68;;
69172;SDS011;56280;49.662;8.408;2023-10-19T04:18:44;26.13;;;16.23;;
69172;SDS011;56280;49.662;8.408;2023-10-19T04:21:09;28.20;;;16.83;;
69172;SDS011;56280;49.662;8.408;2023-10-19T04:23:35;30.53;;;17.67;;
69172;SDS011;56280;49.662;8.408;2023-10-19T04:26:01;34.47;;;18.40;;
69172;SDS011;56280;49.662;8.408;2023-10-19T04:28:36;30.17;;;17.33;;
69172;SDS011;56280;49.662;8.408;2023-10-19T04:31:14;32.30;;;18.40;;
69172;SDS011;56280;49.662;8.408;2023-10-19T04:33:41;31.93;;;18.57;;
69172;SDS011;56280;49.662;8.408;2023-10-19T04:36:11;34.85;;;19.48;;
69172;SDS011;56280;49.662;8.408;2023-10-19T04:38:37;33.22;;;18.80;;
69172;SDS011;56280;49.662;8.408;2023-10-19T04:41:11;31.17;;;18.23;;
69172;SDS011;56280;49.662;8.408;2023-10-19T04:43:37;35.17;;;19.00;;
69172;SDS011;56280;49.662;8.408;2023-10-19T04:46:04;35.03;;;18.73;;
69172;SDS011;56280;49.662;8.408;2023-10-19T04:48:36;35.53;;;19.55;;
69172;SDS011;56280;49.662;8.408;2023-10-19T04:51:02;35.60;;;19.13;;
69172;SDS011;56280;49.662;8.408;2023-10-19T04:53:30;35.60;;;19.08;;
69172;SDS011;56280;49.662;8.408;2023-10-19T04:55:56;31.08;;;18.55;;
69172;SDS011;56280;49.662;8.408;2023-10-19T04:58:21;32.13;;;18.70;;
69172;SDS011;56280;49.662;8.408;2023-10-19T05:00:46;32.17;;;18.13;;
69172;SDS011;56280;49.662;8.408;2023-10-19T05:03:12;38.03;;;18.93;;
69172;SDS011;56280;49.662;8.408;2023-10-19T05:05:43;35.72;;;19.80;;
69172;SDS011;56280;49.662;8.408;2023-10-19T05:08:08;37.27;;;19.70;;
69172;SDS011;56280;49.662;8.408;2023-10-19T05:10:34;35.17;;;18.87;;
69172;SDS011;56280;49.662;8.408;2023-10-19T05:12:59;33.93;;;18.13;;
69172;SDS011;56280;49.662;8.408;2023-10-19T05:15:24;35.20;;;18.00;;
69172;SDS011;56280;49.662;8.408;2023-10-19T05:17:49;33.47;;;18.60;;
69172;SDS011;56280;49.662;8.408;2023-10-19T05:20:15;38.90;;;19.90;;
69172;SDS011;56280;49.662;8.408;2023-10-19T05:22:40;38.70;;;20.53;;
69172;SDS011;56280;49.662;8.408;2023-10-19T05:25:05;35.93;;;19.60;;
69172;SDS011;56280;49.662;8.408;2023-10-19T05:27:32;34.85;;;19.67;;
69172;SDS011;56280;49.662;8.408;2023-10-19T05:29:58;36.90;;;19.90;;
69172;SDS011;56280;49.662;8.408;2023-10-19T05:32:24;35.67;;;19.67;;
69172;SDS011;56280;49.662;8.408;2023-10-19T05:34:49;36.50;;;19.83;;
69172;SDS011;56280;49.662;8.408;2023-10-19T05:37:15;40.43;;;20.43;;
69172;SDS011;56280;49.662;8.408;2023-10-19T05:39:42;41.65;;;20.70;;
69172;SDS011;56280;49.662;8.408;2023-10-19T05:42:07;45.70;;;22.03;;
69172;SDS011;56280;49.662;8.408;2023-10-19T05:44:32;44.40;;;22.20;;
69172;SDS011;56280;49.662;8.408;2023-10-19T05:46:58;45.07;;;22.10;;
69172;SDS011;56280;49.662;8.408;2023-10-19T05:49:23;42.83;;;22.23;;
69172;SDS011;56280;49.662;8.408;2023-10-19T05:51:49;38.13;;;20.75;;
69172;SDS011;56280;49.662;8.408;2023-10-19T05:54:15;36.40;;;20.55;;
69172;SDS011;56280;49.662;8.408;2023-10-19T05:56:40;36.80;;;20.83;;
69172;SDS011;56280;49.662;8.408;2023-10-19T05:59:05;39.43;;;20.67;;
69172;SDS011;56280;49.662;8.408;2023-10-19T06:01:31;38.75;;;20.42;;
69172;SDS011;56280;49.662;8.408;2023-10-19T06:03:57;38.88;;;20.17;;
69172;SDS011;56280;49.662;8.408;2023-10-19T06:06:22;34.60;;;19.43;;
69172;SDS011;56280;49.662;8.408;2023-10-19T06:08:48;33.67;;;19.57;;
69172;SDS011;56280;49.662;8.408;2023-10-19T06:11:14;35.43;;;19.33;;
69172;SDS011;56280;49.662;8.408;2023-10-19T06:13:40;31.80;;;18.90;;
69172;SDS011;56280;49.662;8.408;2023-10-19T06:16:05;30.98;;;18.52;;
69172;SDS011;56280;49.662;8.408;2023-10-19T06:18:30;30.63;;;18.10;;
69172;SDS011;56280;49.662;8.408;2023-10-19T06:20:56;30.27;;;18.05;;
69172;SDS011;56280;49.662;8.408;2023-10-19T06:23:21;28.80;;;17.50;;
69172;SDS011;56280;49.662;8.408;2023-10-19T06:25:47;27.93;;;15.77;;
69172;SDS011;56280;49.662;8.408;2023-10-19T06:28:12;29.73;;;18.07;;
69172;SDS011;56280;49.662;8.408;2023-10-19T06:30:38;29.88;;;16.65;;
69172;SDS011;56280;49.662;8.408;2023-10-19T06:33:05;29.20;;;16.98;;
69172;SDS011;56280;49.662;8.408;2023-10-19T06:35:31;29.92;;;17.40;;
69172;SDS011;56280;49.662;8.408;2023-10-19T06:37:57;27.90;;;17.30;;
69172;SDS011;56280;49.662;8.408;2023-10-19T06:40:23;27.75;;;16.27;;
69172;SDS011;56280;49.662;8.408;2023-10-19T06:42:50;27.17;;;16.33;;
69172;SDS011;56280;49.662;8.408;2023-10-19T06:45:16;26.10;;;16.67;;
69172;SDS011;56280;49.662;8.408;2023-10-19T06:47:44;28.33;;;15.70;;
69172;SDS011;56280;49.662;8.408;2023-10-19T06:50:11;27.90;;;15.98;;
69172;SDS011;56280;49.662;8.408;2023-10-19T06:52:40;27.80;;;16.13;;
69172;SDS011;56280;49.662;8.408;2023-10-19T06:55:07;25.65;;;15.93;;
69172;SDS011;56280;49.662;8.408;2023-10-19T06:57:41;25.02;;;15.82;;
69172;SDS011;56280;49.662;8.408;2023-10-19T07:00:11;27.02;;;15.40;;
69172;SDS011;56280;49.662;8.408;2023-10-19T07:02:50;25.87;;;15.57;;
69172;SDS011;56280;49.662;8.408;2023-10-19T07:05:16;25.05;;;15.63;;
69172;SDS011;56280;49.662;8.408;2023-10-19T07:07:55;22.83;;;15.05;;
69172;SDS011;56280;49.662;8.408;2023-10-19T07:10:21;26.98;;;15.23;;
69172;SDS011;56280;49.662;8.408;2023-10-19T07:12:48;22.88;;;15.27;;
69172;SDS011;56280;49.662;8.408;2023-10-19T07:15:17;24.63;;;15.10;;
69172;SDS011;56280;49.662;8.408;2023-10-19T07:17:47;22.13;;;14.13;;
69172;SDS011;56280;49.662;8.408;2023-10-19T07:20:13;25.48;;;14.40;;
69172;SDS011;56280;49.662;8.408;2023-10-19T07:23:01;22.25;;;14.18;;
69172;SDS011;56280;49.662;8.408;2023-10-19T07:25:49;22.40;;;14.20;;
69172;SDS011;56280;49.662;8.408;2023-10-19T07:28:19;21.23;;;13.73;;
69172;SDS011;56280;49.662;8.408;2023-10-19T07:30:45;22.03;;;13.97;;
69172;SDS011;56280;49.662;8.408;2023-10-19T07:33:11;20.33;;;14.13;;
69172;SDS011;56280;49.662;8.408;2023-10-19T07:35:44;23.48;;;13.82;;
69172;SDS011;56280;49.662;8.408;2023-10-19T07:38:17;22.10;;;14.00;;
69172;SDS011;56280;49.662;8.408;2023-10-19T07:40:45;22.60;;;14.57;;
69172;SDS011;56280;49.662;8.408;2023-10-19T07:43:11;21.42;;;14.18;;
69172;SDS011;56280;49.662;8.408;2023-10-19T07:45:36;23.50;;;14.63;;
69172;SDS011;56280;49.662;8.408;2023-10-19T07:48:02;24.67;;;14.73;;
69172;SDS011;56280;49.662;8.408;2023-10-19T07:50:35;25.00;;;16.13;;
69172;SDS011;56280;49.662;8.408;2023-10-19T07:53:01;23.35;;;15.18;;
69172;SDS011;56280;49.662;8.408;2023-10-19T07:55:27;24.52;;;15.57;;
69172;SDS011;56280;49.662;8.408;2023-10-19T07:57:53;22.45;;;14.60;;
69172;SDS011;56280;49.662;8.408;2023-10-19T08:00:19;26.17;;;15.87;;
69172;SDS011;56280;49.662;8.408;2023-10-19T08:02:45;24.42;;;14.75;;
69172;SDS011;56280;49.662;8.408;2023-10-19T08:05:14;24.80;;;14.98;;
69172;SDS011;56280;49.662;8.408;2023-10-19T08:07:41;20.48;;;13.93;;
69172;SDS011;56280;49.662;8.408;2023-10-19T08:10:12;21.15;;;14.10;;
69172;SDS011;56280;49.662;8.408;2023-10-19T08:12:39;20.80;;;14.15;;
69172;SDS011;56280;49.662;8.408;2023-10-19T08:15:08;20.55;;;14.43;;
69172;SDS011;56280;49.662;8.408;2023-10-19T08:17:36;23.23;;;14.18;;
69172;SDS011;56280;49.662;8.408;2023-10-19T08:20:03;21.15;;;14.13;;
69172;SDS011;56280;49.662;8.408;2023-10-19T08:22:33;20.50;;;13.80;;
69172;SDS011;56280;49.662;8.408;2023-10-19T08:24:58;20.70;;;14.90;;
69172;SDS011;56280;49.662;8.408;2023-10-19T08:27:24;21.77;;;14.60;;
69172;SDS011;56280;49.662;8.408;2023-10-19T08:29:49;23.17;;;14.93;;
69172;SDS011;56280;49.662;8.408;2023-10-19T08:32:15;21.80;;;14.52;;
69172;SDS011;56280;49.662;8.408;2023-10-19T08:34:41;22.93;;;15.20;;
69172;SDS011;56280;49.662;8.408;2023-10-19T08:37:06;20.63;;;13.90;;
69172;SDS011;56280;49.662;8.408;2023-10-19T08:39:32;22.25;;;15.55;;
69172;SDS011;56280;49.662;8.408;2023-10-19T08:42:04;23.20;;;15.45;;
69172;SDS011;56280;49.662;8.408;2023-10-19T08:44:31;20.45;;;14.18;;
69172;SDS011;56280;49.662;8.408;2023-10-19T08:46:57;20.57;;;14.37;;
69172;SDS011;56280;49.662;8.408;2023-10-19T08:49:22;22.87;;;14.90;;
69172;SDS011;56280;49.662;8.408;2023-10-19T08:51:48;22.42;;;14.60;;
69172;SDS011;56280;49.662;8.408;2023-10-19T08:54:16;22.13;;;14.45;;
69172;SDS011;56280;49.662;8.408;2023-10-19T08:56:42;20.27;;;14.10;;
69172;SDS011;56280;49.662;8.408;2023-10-19T08:59:07;22.50;;;14.60;;
69172;SDS011;56280;49.662;8.408;2023-10-19T09:01:35;19.50;;;14.27;;
69172;SDS011;56280;49.662;8.408;2023-10-19T09:04:01;20.40;;;14.53;;
69172;SDS011;56280;49.662;8.408;2023-10-19T09:06:27;19.23;;;14.00;;
69172;SDS011;56280;49.662;8.408;2023-10-19T09:08:54;21.50;;;14.20;;
69172;SDS011;56280;49.662;8.408;2023-10-19T09:11:20;23.83;;;14.70;;
69172;SDS011;56280;49.662;8.408;2023-10-19T09:13:50;19.70;;;13.37;;
69172;SDS011;56280;49.662;8.408;2023-10-19T09:16:18;19.98;;;13.63;;
69172;SDS011;56280;49.662;8.408;2023-10-19T09:18:45;20.50;;;13.88;;
69172;SDS011;56280;49.662;8.408;2023-10-19T09:21:11;19.50;;;13.90;;
69172;SDS011;56280;49.662;8.408;2023-10-19T09:23:49;19.00;;;13.30;;
69172;SDS011;56280;49.662;8.408;2023-10-19T09:26:15;21.38;;;13.63;;
69172;SDS011;56280;49.662;8.408;2023-10-19T09:28:41;19.23;;;13.50;;
69172;SDS011;56280;49.662;8.408;2023-10-19T09:31:06;20.83;;;14.10;;
69172;SDS011;56280;49.662;8.408;2023-10-19T09:33:34;19.35;;;13.30;;
69172;SDS011;56280;49.662;8.408;2023-10-19T09:36:01;19.08;;;12.65;;
69172;SDS011;56280;49.662;8.408;2023-10-19T09:38:29;19.60;;;13.90;;
69172;SDS011;56280;49.662;8.408;2023-10-19T09:40:55;18.37;;;12.87;;
69172;SDS011;56280;49.662;8.408;2023-10-19T09:43:22;18.03;;;12.93;;
69172;SDS011;56280;49.662;8.408;2023-10-19T09:45:56;18.30;;;12.88;;
69172;SDS011;56280;49.662;8.408;2023-10-19T09:48:25;19.02;;;12.50;;
69172;SDS011;56280;49.662;8.408;2023-10-19T09:50:52;19.40;;;12.57;;
69172;SDS011;56280;49.662;8.408;2023-10-19T09:53:26;18.35;;;12.50;;
69172;SDS011;56280;49.662;8.408;2023-10-19T09:55:53;19.67;;;12.57;;
69172;SDS011;56280;49.662;8.408;2023-10-19T09:58:23;20.52;;;12.93;;
69172;SDS011;56280;49.662;8.408;2023-10-19T10:00:54;18.55;;;12.68;;
69172;SDS011;56280;49.662;8.408;2023-10-19T10:06:30;18.30;;;12.57;;
69172;SDS011;56280;49.662;8.408;2023-10-19T10:09:17;19.43;;;13.57;;
69172;SDS011;56280;49.662;8.408;2023-10-19T10:11:46;17.67;;;12.10;;
69172;SDS011;56280;49.662;8.408;2023-10-19T10:14:24;17.77;;;12.23;;
69172;SDS011;56280;49.662;8.408;2023-10-19T10:17:00;19.40;;;12.75;;
69172;SDS011;56280;49.662;8.408;2023-10-19T10:19:27;18.40;;;12.45;;
69172;SDS011;56280;49.662;8.408;2023-10-19T10:22:11;16.93;;;12.10;;
69172;SDS011;56280;49.662;8.408;2023-10-19T10:24:42;18.23;;;12.00;;
69172;SDS011;56280;49.662;8.408;2023-10-19T10:27:09;16.98;;;12.05;;
69172;SDS011;56280;49.662;8.408;2023-10-19T10:29:35;19.15;;;12.07;;
69172;SDS011;56280;49.662;8.408;2023-10-19T10:32:01;16.67;;;11.57;;
69172;SDS011;56280;49.662;8.408;2023-10-19T10:39:27;19.23;;;11.80;;
69172;SDS011;56280;49.662;8.408;2023-10-19T10:41:59;17.10;;;11.73;;
69172;SDS011;56280;49.662;8.408;2023-10-19T10:44:41;18.03;;;12.20;;
69172;SDS011;56280;49.662;8.408;2023-10-19T10:47:12;19.40;;;12.38;;
69172;SDS011;56280;49.662;8.408;2023-10-19T10:52:22;19.40;;;11.98;;
69172;SDS011;56280;49.662;8.408;2023-10-19T10:54:55;18.23;;;12.20;;
69172;SDS011;56280;49.662;8.408;2023-10-19T10:57:30;17.70;;;11.63;;
69172;SDS011;56280;49.662;8.408;2023-10-19T11:00:03;18.13;;;11.43;;
69172;SDS011;56280;49.662;8.408;2023-10-19T11:02:32;17.90;;;12.00;;
69172;SDS011;56280;49.662;8.408;2023-10-19T11:04:59;19.03;;;12.23;;
69172;SDS011;56280;49.662;8.408;2023-10-19T11:07:25;17.95;;;11.85;;
69172;SDS011;56280;49.662;8.408;2023-10-19T11:09:50;18.88;;;12.27;;
69172;SDS011;56280;49.662;8.408;2023-10-19T11:12:16;17.85;;;11.40;;
69172;SDS011;56280;49.662;8.408;2023-10-19T11:14:51;18.00;;;12.63;;
69172;SDS011;56280;49.662;8.408;2023-10-19T11:17:18;18.07;;;12.30;;
69172;SDS011;56280;49.662;8.408;2023-10-19T11:19:43;19.53;;;11.93;;
69172;SDS011;56280;49.662;8.408;2023-10-19T11:22:09;16.73;;;11.67;;
69172;SDS011;56280;49.662;8.408;2023-10-19T11:24:35;18.63;;;11.63;;
69172;SDS011;56280;49.662;8.408;2023-10-19T11:27:05;17.83;;;11.63;;
69172;SDS011;56280;49.662;8.408;2023-10-19T11:29:35;17.48;;;11.40;;
69172;SDS011;56280;49.662;8.408;2023-10-19T11:32:00;14.83;;;10.80;;
69172;SDS011;56280;49.662;8.408;2023-10-19T11:34:27;17.25;;;11.55;;
69172;SDS011;56280;49.662;8.408;2023-10-19T11:36:54;16.30;;;11.57;;
69172;SDS011;56280;49.662;8.408;2023-10-19T11:39:25;19.38;;;12.00;;
69172;SDS011;56280;49.662;8.408;2023-10-19T11:41:51;18.30;;;12.02;;
69172;SDS011;56280;49.662;8.408;2023-10-19T11:44:16;16.40;;;11.90;;
69172;SDS011;56280;49.662;8.408;2023-10-19T11:46:41;17.50;;;11.77;;
69172;SDS011;56280;49.662;8.408;2023-10-19T11:49:07;16.83;;;12.20;;
69172;SDS011;56280;49.662;8.408;2023-10-19T11:51:34;16.25;;;11.52;;
69172;SDS011;56280;49.662;8.408;2023-10-19T11:53:59;17.30;;;11.73;;
69172;SDS011;56280;49.662;8.408;2023-10-19T11:56:24;19.80;;;12.53;;
69172;SDS011;56280;49.662;8.408;2023-10-19T11:58:50;17.73;;;11.77;;
69172;SDS011;56280;49.662;8.408;2023-10-19T12:01:15;15.52;;;11.00;;
69172;SDS011;56280;49.662;8.408;2023-10-19T12:03:43;15.57;;;11.30;;
69172;SDS011;56280;49.662;8.408;2023-10-19T12:06:10;15.52;;;11.48;;
69172;SDS011;56280;49.662;8.408;2023-10-19T12:08:38;17.40;;;11.68;;
69172;SDS011;56280;49.662;8.408;2023-10-19T12:11:05;18.25;;;11.75;;
69172;SDS011;56280;49.662;8.408;2023-10-19T12:13:40;16.03;;;11.63;;
69172;SDS011;56280;49.662;8.408;2023-10-19T12:16:09;19.25;;;12.27;;
69172;SDS011;56280;49.662;8.408;2023-10-19T12:18:37;19.77;;;13.50;;
69172;SDS011;56280;49.662;8.408;2023-10-19T12:21:03;20.83;;;13.20;;
69172;SDS011;56280;49.662;8.408;2023-10-19T12:23:32;17.40;;;12.05;;
69172;SDS011;56280;49.662;8.408;2023-10-19T12:25:58;23.03;;;14.80;;
69172;SDS011;56280;49.662;8.408;2023-10-19T12:28:23;20.33;;;14.73;;
69172;SDS011;56280;49.662;8.408;2023-10-19T12:30:49;21.30;;;15.70;;
69172;SDS011;56280;49.662;8.408;2023-10-19T12:33:15;22.03;;;15.63;;
69172;SDS011;56280;49.662;8.408;2023-10-19T12:35:41;22.17;;;14.70;;
69172;SDS011;56280;49.662;8.408;2023-10-19T12:38:10;18.33;;;13.98;;
69172;SDS011;56280;49.662;8.408;2023-10-19T12:40:40;20.27;;;14.32;;
69172;SDS011;56280;49.662;8.408;2023-10-19T12:43:07;20.80;;;13.93;;
69172;SDS011;56280;49.662;8.408;2023-10-19T12:45:35;19.07;;;14.00;;
69172;SDS011;56280;49.662;8.408;2023-10-19T12:48:05;20.13;;;14.70;;
69172;SDS011;56280;49.662;8.408;2023-10-19T12:50:31;21.60;;;14.80;;
69172;SDS011;56280;49.662;8.408;2023-10-19T12:52:59;23.25;;;14.88;;
69172;SDS011;56280;49.662;8.408;2023-10-19T12:55:25;22.00;;;15.10;;
69172;SDS011;56280;49.662;8.408;2023-10-19T12:57:52;24.42;;;15.43;;
69172;SDS011;56280;49.662;8.408;2023-10-19T13:00:17;22.60;;;15.23;;
69172;SDS011;56280;49.662;8.408;2023-10-19T13:02:49;23.13;;;15.75;;
69172;SDS011;56280;49.662;8.408;2023-10-19T13:05:15;23.38;;;16.38;;
69172;SDS011;56280;49.662;8.408;2023-10-19T13:07:43;23.15;;;15.95;;
69172;SDS011;56280;49.662;8.408;2023-10-19T13:10:09;22.55;;;15.40;;
69172;SDS011;56280;49.662;8.408;2023-10-19T13:12:36;23.37;;;16.03;;
69172;SDS011;56280;49.662;8.408;2023-10-19T13:15:01;22.25;;;15.77;;
69172;SDS011;56280;49.662;8.408;2023-10-19T13:17:27;22.35;;;16.58;;
69172;SDS011;56280;49.662;8.408;2023-10-19T13:19:52;24.27;;;17.03;;
69172;SDS011;56280;49.662;8.408;2023-10-19T13:22:20;24.27;;;17.15;;
69172;SDS011;56280;49.662;8.408;2023-10-19T13:24:46;23.98;;;16.38;;
69172;SDS011;56280;49.662;8.408;2023-10-19T13:27:12;23.93;;;15.63;;
69172;SDS011;56280;49.662;8.408;2023-10-19T13:29:37;19.93;;;14.53;;
69172;SDS011;56280;49.662;8.408;2023-10-19T13:32:05;22.70;;;14.07;;
69172;SDS011;56280;49.662;8.408;2023-10-19T13:34:30;23.00;;;14.17;;
69172;SDS011;56280;49.662;8.408;2023-10-19T13:36:56;20.83;;;13.90;;
69172;SDS011;56280;49.662;8.408;2023-10-19T13:39:22;18.25;;;11.95;;
69172;SDS011;56280;49.662;8.408;2023-10-19T13:41:50;16.70;;;10.95;;
69172;SDS011;56280;49.662;8.408;2023-10-19T13:44:17;12.48;;;9.20;;
69172;SDS011;56280;49.662;8.408;2023-10-19T13:46:45;12.98;;;8.77;;
69172;SDS011;56280;49.662;8.408;2023-10-19T13:49:10;12.97;;;8.73;;
69172;SDS011;56280;49.662;8.408;2023-10-19T13:51:36;13.83;;;9.13;;
69172;SDS011;56280;49.662;8.408;2023-10-19T13:54:01;11.87;;;8.37;;
69172;SDS011;56280;49.662;8.408;2023-10-19T13:56:26;11.90;;;8.00;;
69172;SDS011;56280;49.662;8.408;2023-10-19T13:58:52;12.90;;;8.73;;
69172;SDS011;56280;49.662;8.408;2023-10-19T14:01:17;12.47;;;8.43;;
69172;SDS011;56280;49.662;8.408;2023-10-19T14:03:43;11.35;;;8.10;;
69172;SDS011;56280;49.662;8.408;2023-10-19T14:06:13;12.53;;;7.83;;
69172;SDS011;56280;49.662;8.408;2023-10-19T14:08:38;13.27;;;8.65;;
69172;SDS011;56280;49.662;8.408;2023-10-19T14:11:04;12.93;;;8.30;;
69172;SDS011;56280;49.662;8.408;2023-10-19T14:13:29;12.77;;;7.80;;
69172;SDS011;56280;49.662;8.408;2023-10-19T14:15:54;13.93;;;7.70;;
69172;SDS011;56280;49.662;8.408;2023-10-19T14:18:20;12.17;;;7.20;;
69172;SDS011;56280;49.662;8.408;2023-10-19T14:20:46;11.25;;;7.75;;
69172;SDS011;56280;49.662;8.408;2023-10-19T14:23:12;12.73;;;8.10;;
69172;SDS011;56280;49.662;8.408;2023-10-19T14:25:38;15.00;;;8.18;;
69172;SDS011;56280;49.662;8.408;2023-10-19T14:28:09;13.32;;;8.38;;
69172;SDS011;56280;49.662;8.408;2023-10-19T14:30:34;12.77;;;7.90;;
69172;SDS011;56280;49.662;8.408;2023-10-19T14:33:00;11.47;;;7.13;;
69172;SDS011;56280;49.662;8.408;2023-10-19T14:35:26;9.65;;;6.78;;
69172;SDS011;56280;49.662;8.408;2023-10-19T14:37:52;11.57;;;6.70;;
69172;SDS011;56280;49.662;8.408;2023-10-19T14:40:22;9.48;;;6.20;;
69172;SDS011;56280;49.662;8.408;2023-10-19T14:42:50;12.15;;;7.18;;